Time;durP1;ratioP1;P1;durP2;ratioP2;P2;SDS_P1;SDS_P2;PMS_P1;PMS_P2;Temp;Humidity;BMP_temperature;BMP_pressure;BME280_temperature;BME280_humidity;BME280_pressure;Samples;Min_cycle;Max_cycle;Signal;HPM_P1;HPM_P2
2022/04/25 00:01:50;;;;;;;;;;;;;;;10.98;81.29;98471.91;5030188;28;19929;-63
2022/04/25 00:04:15;;;;;;;;;;;;;;;10.98;81.87;98474.56;5031930;28;19929;-63
2022/04/25 00:06:41;;;;;;;;;;;;;;;10.98;81.95;98474.56;5030780;28;19925;-63
2022/04/25 00:09:06;;;;;;;;;;;;;;;10.93;81.85;98471.09;5031782;28;19929;-63
2022/04/25 00:11:32;;;;;;;;;;;;;;;10.86;81.43;98469.50;5031750;28;20397;-63
2022/04/25 00:13:57;;;;;;;;;;;;;;;10.75;81.69;98461.75;5031946;28;19933;-62
2022/04/25 00:16:24;;;;;;;;;;;;;;;10.78;82.43;98471.84;5031416;28;19940;-63
2022/04/25 00:18:49;;;;;;;;;;;;;;;10.77;82.53;98472.91;5033891;28;19956;-63
2022/04/25 00:21:15;;;;;;;;;;;;;;;10.83;81.73;98470.00;5036017;28;19925;-62
2022/04/25 00:23:40;;;;;;;;;;;;;;;10.82;81.45;98472.91;5034801;28;19929;-63
2022/04/25 00:26:06;;;;;;;;;;;;;;;10.85;81.66;98467.91;5035234;28;19932;-62
2022/04/25 00:28:31;;;;;;;;;;;;;;;10.80;81.42;98467.88;5035870;28;19979;-62
2022/04/25 00:30:57;;;;;;;;;;;;;;;10.82;81.42;98467.59;5034321;28;19929;-63
2022/04/25 00:33:22;;;;;;;;;;;;;;;10.71;81.98;98463.31;5035579;28;19952;-63
2022/04/25 00:35:48;;;;;;;;;;;;;;;10.72;81.57;98467.59;5033519;28;19956;-62
2022/04/25 00:38:13;;;;;;;;;;;;;;;10.79;81.70;98466.28;5051078;28;19925;-62
2022/04/25 00:40:39;;;;;;;;;;;;;;;10.81;81.49;98466.03;5035396;28;19925;-63
2022/04/25 00:43:05;;;;;;;;;;;;;;;10.79;80.88;98462.81;5035656;28;19932;-63
2022/04/25 00:45:31;;;;;;;;;;;;;;;10.85;81.25;98467.91;5033933;28;20460;-63
2022/04/25 00:47:58;;;;;;;;;;;;;;;10.89;80.96;98465.53;5035526;28;19925;-63
2022/04/25 00:50:24;;;;;;;;;;;;;;;10.88;80.43;98466.56;5034086;28;19925;-63
2022/04/25 00:52:49;;;;;;;;;;;;;;;10.88;80.56;98466.56;5035547;28;19929;-62
2022/04/25 00:55:15;;;;;;;;;;;;;;;10.89;80.21;98465.53;5034035;28;19925;-63
2022/04/25 00:57:40;;;;;;;;;;;;;;;10.81;80.07;98471.31;5017495;28;19951;-62
2022/04/25 01:00:07;;;;;;;;;;;;;;;10.84;80.78;98471.59;5033926;28;19932;-62
2022/04/25 01:02:33;;;;;;;;;;;;;;;10.86;80.55;98466.03;5035219;28;19929;-62
2022/04/25 01:04:58;;;;;;;;;;;;;;;10.89;80.38;98474.25;5016887;28;19971;-64
2022/04/25 01:07:25;;;;;;;;;;;;;;;10.92;79.73;98472.94;5033605;28;19929;-63
2022/04/25 01:09:51;;;;;;;;;;;;;;;10.87;80.22;98481.69;5035141;28;19960;-61
2022/04/25 01:12:16;;;;;;;;;;;;;;;10.89;80.18;98482.22;5034421;28;19929;-63
2022/04/25 01:14:42;;;;;;;;;;;;;;;10.93;79.68;98481.69;5035058;28;19925;-62
2022/04/25 01:17:07;;;;;;;;;;;;;;;10.89;79.27;98478.78;5034765;28;19978;-62
2022/04/25 01:19:33;;;;;;;;;;;;;;;10.86;79.81;98474.78;5035302;28;19956;-63
2022/04/25 01:21:59;;;;;;;;;;;;;;;10.80;79.41;98472.38;5034342;28;20355;-63
2022/04/25 01:27:15;;;;;;;;;;;;;;;10.67;79.97;98471.78;5034790;28;20314;-62
2022/04/25 01:29:41;;;;;;;;;;;;;;;10.66;80.25;98462.25;5033441;28;20460;-63
2022/04/25 01:32:07;;;;;;;;;;;;;;;10.66;80.21;98461.47;5033910;28;19971;-63
2022/04/25 01:34:33;;;;;;;;;;;;;;;10.60;79.63;98458.00;5033267;28;20318;-63
2022/04/25 01:36:58;;;;;;;;;;;;;;;10.54;79.56;98458.25;5016596;28;19925;-63
2022/04/25 01:39:24;;;;;;;;;;;;;;;10.49;80.37;98459.03;5034656;28;19972;-63
2022/04/25 01:41:49;;;;;;;;;;;;;;;10.44;79.87;98459.81;5034102;28;20034;-61
2022/04/25 01:44:15;;;;;;;;;;;;;;;10.36;79.73;98459.50;5034705;28;19935;-62
2022/04/25 01:46:40;;;;;;;;;;;;;;;10.22;80.26;98459.94;5016374;28;19921;-62
2022/04/25 01:49:06;;;;;;;;;;;;;;;10.08;80.66;98465.94;5032902;28;19929;-61
2022/04/25 01:51:32;;;;;;;;;;;;;;;9.96;81.16;98458.19;5034319;28;20365;-62
2022/04/25 01:53:57;;;;;;;;;;;;;;;9.96;81.71;98458.19;5033187;28;19937;-62
2022/04/25 01:56:23;;;;;;;;;;;;;;;9.99;80.67;98461.13;5034013;28;20352;-62
2022/04/25 01:58:48;;;;;;;;;;;;;;;10.09;81.48;98463.06;5034027;28;19929;-62
2022/04/25 02:01:14;;;;;;;;;;;;;;;10.12;80.39;98467.03;5033923;28;19925;-62
2022/04/25 02:03:40;;;;;;;;;;;;;;;10.05;81.12;98469.91;5034380;28;19952;-61
2022/04/25 02:06:05;;;;;;;;;;;;;;;9.98;80.92;98472.78;5032595;28;20413;-62
2022/04/25 02:08:31;;;;;;;;;;;;;;;9.98;81.08;98478.06;5034179;28;19937;-62
2022/04/25 02:13:40;;;;;;;;;;;;;;;9.89;80.41;98473.53;5032196;28;19925;-62
2022/04/25 02:16:06;;;;;;;;;;;;;;;9.86;81.15;98484.63;5033654;28;19948;-61
2022/04/25 02:18:31;;;;;;;;;;;;;;;9.74;80.36;98475.00;5033849;28;19929;-61
2022/04/25 02:20:57;;;;;;;;;;;;;;;9.69;80.93;98477.63;5033867;28;20378;-65
2022/04/25 02:23:23;;;;;;;;;;;;;;;9.68;80.39;98483.16;5033938;28;19929;-64
2022/04/25 02:25:49;;;;;;;;;;;;;;;9.55;80.45;98479.88;5033518;28;20401;-62
2022/04/25 02:28:14;;;;;;;;;;;;;;;9.51;80.98;98475.34;5033627;28;19931;-62
2022/04/25 02:30:40;;;;;;;;;;;;;;;9.45;80.26;98469.22;5033600;28;19924;-62
2022/04/25 02:33:06;;;;;;;;;;;;;;;9.45;80.26;98479.81;5032123;28;19935;-63
2022/04/25 02:35:31;;;;;;;;;;;;;;;9.51;80.46;98480.66;5033628;28;19971;-62
2022/04/25 02:37:56;;;;;;;;;;;;;;;9.63;80.60;98478.63;5031401;28;20425;-63
2022/04/25 02:40:22;;;;;;;;;;;;;;;9.73;79.68;98476.03;5033485;28;19925;-61
2022/04/25 02:42:48;;;;;;;;;;;;;;;9.83;79.80;98477.19;5015201;28;20321;-61
2022/04/25 02:45:13;;;;;;;;;;;;;;;9.90;79.07;98480.41;5033110;28;20382;-64
2022/04/25 02:47:41;;;;;;;;;;;;;;;10.00;79.07;98488.44;5033150;28;20360;-63
2022/04/25 02:50:07;;;;;;;;;;;;;;;10.05;79.14;98480.50;5032122;28;19964;-62
2022/04/25 02:52:32;;;;;;;;;;;;;;;10.15;78.56;98495.66;5033087;28;20027;-63
2022/04/25 02:54:58;;;;;;;;;;;;;;;10.12;77.62;98486.38;5032446;28;20040;-62
2022/04/25 02:57:23;;;;;;;;;;;;;;;10.24;78.08;98486.19;5031598;28;20040;-62
2022/04/25 02:59:49;;;;;;;;;;;;;;;10.29;77.26;98491.50;5033107;28;19932;-62
2022/04/25 03:02:15;;;;;;;;;;;;;;;10.22;77.05;98493.56;5032942;28;19990;-62
2022/04/25 03:04:40;;;;;;;;;;;;;;;10.24;77.10;98496.78;5031387;28;19925;-63
2022/04/25 03:07:06;;;;;;;;;;;;;;;10.29;76.84;98493.38;5015016;28;19925;-62
2022/04/25 03:09:31;;;;;;;;;;;;;;;10.38;76.90;98495.28;5032815;28;19925;-62
2022/04/25 03:11:58;;;;;;;;;;;;;;;10.46;75.83;98488.69;5031333;28;19936;-63
2022/04/25 03:14:25;;;;;;;;;;;;;;;10.51;76.25;98491.38;5032006;28;19941;-62
2022/04/25 03:16:51;;;;;;;;;;;;;;;10.56;75.77;98488.75;5032492;28;20394;-62
2022/04/25 03:19:17;;;;;;;;;;;;;;;10.59;76.35;98482.94;5032785;28;19940;-60
2022/04/25 03:21:43;;;;;;;;;;;;;;;10.58;76.30;98486.59;5032711;28;19928;-61
2022/04/25 03:24:08;;;;;;;;;;;;;;;10.60;76.09;98489.00;5031011;28;19929;-62
2022/04/25 03:26:34;;;;;;;;;;;;;;;10.62;76.33;98484.25;5032674;28;19929;-62
2022/04/25 03:28:59;;;;;;;;;;;;;;;10.68;76.31;98494.63;5032794;28;20363;-63
2022/04/25 03:31:25;;;;;;;;;;;;;;;10.78;76.97;98504.44;5032490;28;19924;-62
2022/04/25 03:33:50;;;;;;;;;;;;;;;11.21;76.67;98497.16;5032415;28;19975;-62
2022/04/25 03:36:16;;;;;;;;;;;;;;;11.90;75.22;98493.19;5032239;28;19925;-62
2022/04/25 03:38:42;;;;;;;;;;;;;;;12.28;71.40;98497.09;5032187;28;19982;-62
2022/04/25 03:41:08;;;;;;;;;;;;;;;12.61;70.46;98497.53;5030633;28;20413;-63
2022/04/25 03:43:34;;;;;;;;;;;;;;;13.02;69.05;98493.88;5032431;28;19944;-63
2022/04/25 03:46:00;;;;;;;;;;;;;;;13.09;67.64;98489.84;5031037;28;20513;-63
2022/04/25 03:48:25;;;;;;;;;;;;;;;13.18;67.32;98487.41;5032188;28;19944;-62
2022/04/25 03:50:51;;;;;;;;;;;;;;;13.36;66.74;98491.31;5031580;28;19924;-62
2022/04/25 03:53:16;;;;;;;;;;;;;;;13.35;65.79;98489.69;5031392;28;19925;-62
2022/04/25 03:58:26;;;;;;;;;;;;;;;13.42;65.42;98497.41;5032321;28;19925;-61
2022/04/25 04:00:52;;;;;;;;;;;;;;;13.48;64.81;98490.97;5030385;28;19931;-62
2022/04/25 04:03:18;;;;;;;;;;;;;;;13.31;65.73;98484.16;5032146;28;19933;-61
2022/04/25 04:05:44;;;;;;;;;;;;;;;13.52;65.84;98478.66;5031976;28;19932;-61
2022/04/25 04:08:10;;;;;;;;;;;;;;;13.91;64.67;98485.78;5031907;28;19932;-63
2022/04/25 04:10:35;;;;;;;;;;;;;;;14.24;63.50;98478.81;5031288;28;19925;-64
2022/04/25 04:13:01;;;;;;;;;;;;;;;14.51;62.39;98476.38;5031847;28;20423;-62
2022/04/25 04:15:26;;;;;;;;;;;;;;;14.83;61.43;98466.91;5030650;28;19932;-61
2022/04/25 04:17:52;;;;;;;;;;;;;;;14.54;59.61;98467.03;5031652;28;19928;-63
2022/04/25 04:20:18;;;;;;;;;;;;;;;14.17;61.09;98470.34;5031623;28;19933;-64
2022/04/25 04:22:43;;;;;;;;;;;;;;;14.32;62.55;98462.16;5031644;28;19929;-63
2022/04/25 04:25:11;;;;;;;;;;;;;;;14.44;60.08;98462.59;5031822;28;19924;-63
2022/04/25 04:27:37;;;;;;;;;;;;;;;14.59;59.13;98466.97;5030407;28;20421;-61
2022/04/25 04:30:05;;;;;;;;;;;;;;;14.78;58.43;98458.97;5030750;28;19925;-61
2022/04/25 04:32:32;;;;;;;;;;;;;;;14.98;59.46;98461.38;5031243;28;19936;-62
2022/04/25 04:34:57;;;;;;;;;;;;;;;15.21;57.57;98464.25;5031346;28;19936;-63
2022/04/25 04:37:24;;;;;;;;;;;;;;;15.05;56.23;98460.22;5031376;28;19929;-63
2022/04/25 04:39:49;;;;;;;;;;;;;;;15.18;57.24;98468.28;5030233;28;20102;-63
2022/04/25 04:42:15;;;;;;;;;;;;;;;15.06;56.51;98464.47;5031640;28;20064;-63
2022/04/25 04:44:42;;;;;;;;;;;;;;;14.83;57.09;98458.13;5031366;28;19970;-62
2022/04/25 04:47:07;;;;;;;;;;;;;;;14.68;57.07;98470.59;5030755;28;19925;-62
2022/04/25 04:49:33;;;;;;;;;;;;;;;14.48;57.42;98460.94;5030050;28;19947;-63
2022/04/25 04:51:58;;;;;;;;;;;;;;;14.11;58.23;98466.16;5030939;28;19925;-62
2022/04/25 04:54:24;;;;;;;;;;;;;;;14.01;58.69;98473.16;5031552;28;19932;-62
2022/04/25 04:56:49;;;;;;;;;;;;;;;14.18;58.46;98477.28;5029789;28;20405;-62
2022/04/25 04:59:15;;;;;;;;;;;;;;;14.08;58.82;98478.16;5031772;28;19929;-63
2022/04/25 05:01:40;;;;;;;;;;;;;;;14.03;58.61;98470.22;5031205;28;19928;-62
2022/04/25 05:04:06;;;;;;;;;;;;;;;13.96;58.94;98475.09;5032008;28;20329;-62
2022/04/25 05:06:33;;;;;;;;;;;;;;;13.97;59.04;98474.00;5034259;28;20020;-62
2022/04/25 05:08:59;;;;;;;;;;;;;;;13.78;59.42;98473.94;5034406;28;19936;-62
2022/04/25 05:11:24;;;;;;;;;;;;;;;13.85;59.17;98480.53;5034868;28;19925;-61
2022/04/25 05:13:50;;;;;;;;;;;;;;;13.96;59.58;98481.19;5035157;28;19983;-62
2022/04/25 05:16:15;;;;;;;;;;;;;;;13.95;59.69;98486.84;5034377;28;19979;-62
2022/04/25 05:18:43;;;;;;;;;;;;;;;14.05;59.91;98490.16;5033447;28;20410;-62
2022/04/25 05:21:08;;;;;;;;;;;;;;;14.03;58.89;98496.84;5034171;28;20055;-60
2022/04/25 05:23:34;;;;;;;;;;;;;;;14.18;59.21;98495.94;5034889;28;19929;-63
2022/04/25 05:26:00;;;;;;;;;;;;;;;14.13;59.65;98499.44;5034205;28;19971;-63
2022/04/25 05:28:28;;;;;;;;;;;;;;;14.05;59.91;98503.50;5034717;28;19968;-61
2022/04/25 05:30:54;;;;;;;;;;;;;;;13.79;60.24;98508.25;5033388;28;19925;-61
2022/04/25 05:33:19;;;;;;;;;;;;;;;13.67;60.80;98502.50;5032817;28;20405;-65
2022/04/25 05:35:45;;;;;;;;;;;;;;;13.70;61.07;98501.94;5031293;28;19972;-61
2022/04/25 05:38:11;;;;;;;;;;;;;;;13.75;60.88;98501.91;5033999;28;19925;-61
2022/04/25 05:40:37;;;;;;;;;;;;;;;13.72;60.57;98504.34;5033543;28;20417;-63
2022/04/25 05:43:03;;;;;;;;;;;;;;;13.50;60.47;98499.44;5031408;28;19929;-62
2022/04/25 05:45:29;;;;;;;;;;;;;;;13.56;60.66;98501.00;5032471;28;19925;-62
2022/04/25 05:47:55;;;;;;;;;;;;;;;13.50;59.74;98512.75;5033586;28;20474;-61
2022/04/25 05:53:06;;;;;;;;;;;;;;;13.75;60.28;98496.59;5033706;28;20032;-64
2022/04/25 05:55:31;;;;;;;;;;;;;;;13.86;60.35;98500.75;5033680;28;20322;-63
2022/04/25 05:57:57;;;;;;;;;;;;;;;13.98;59.96;98502.25;5032362;28;19929;-64
2022/04/25 06:00:24;;;;;;;;;;;;;;;14.06;59.99;98504.31;5032761;28;20012;-62
2022/04/25 06:02:49;;;;;;;;;;;;;;;13.98;60.09;98508.38;5029625;28;19929;-65
2022/04/25 06:05:15;;;;;;;;;;;;;;;13.97;60.15;98505.97;5030593;28;19925;-65
2022/04/25 06:07:41;;;;;;;;;;;;;;;13.98;59.65;98512.91;5032812;28;19944;-66
2022/04/25 06:10:07;;;;;;;;;;;;;;;14.22;59.38;98505.72;5032370;28;19932;-66
2022/04/25 06:12:32;;;;;;;;;;;;;;;14.49;58.77;98505.16;5032652;28;20009;-64
2022/04/25 06:15:00;;;;;;;;;;;;;;;14.67;58.51;98508.19;5033048;28;20267;-65
2022/04/25 06:17:26;;;;;;;;;;;;;;;14.78;58.21;98509.66;5030007;28;19937;-64
2022/04/25 06:19:51;;;;;;;;;;;;;;;14.68;57.81;98499.91;5018301;28;19932;-65
2022/04/25 06:22:17;;;;;;;;;;;;;;;14.47;58.73;98512.69;5011679;28;19929;-63
2022/04/25 06:24:43;;;;;;;;;;;;;;;14.37;58.76;98506.66;5029022;28;19925;-63
2022/04/25 06:27:09;;;;;;;;;;;;;;;14.24;59.45;98503.59;5029180;28;19971;-63
2022/04/25 06:29:35;;;;;;;;;;;;;;;14.35;59.47;98492.81;5029334;28;20337;-64
2022/04/25 06:32:03;;;;;;;;;;;;;;;14.44;58.60;98497.25;5030540;28;20141;-63
2022/04/25 06:34:28;;;;;;;;;;;;;;;14.57;58.82;98489.66;5030799;28;20012;-64
2022/04/25 06:36:54;;;;;;;;;;;;;;;14.61;58.38;98488.00;5029780;28;19960;-63
2022/04/25 06:39:19;;;;;;;;;;;;;;;14.68;58.36;98485.81;5030767;28;20485;-62
2022/04/25 06:41:46;;;;;;;;;;;;;;;14.63;58.44;98480.53;5012080;28;19921;-63
2022/04/25 06:44:12;;;;;;;;;;;;;;;14.70;57.28;98476.41;5030195;28;19940;-61
2022/04/25 06:46:38;;;;;;;;;;;;;;;14.97;57.12;98481.13;5030106;28;20313;-63
2022/04/25 06:51:47;;;;;;;;;;;;;;;14.87;56.76;98477.81;5029428;28;20032;-63
2022/04/25 06:54:13;;;;;;;;;;;;;;;14.98;56.85;98473.91;5030199;28;20362;-63
2022/04/25 06:56:39;;;;;;;;;;;;;;;14.95;54.92;98469.16;5030631;28;19932;-61
2022/04/25 06:59:05;;;;;;;;;;;;;;;14.82;55.51;98459.19;5031074;28;19933;-62
2022/04/25 07:01:32;;;;;;;;;;;;;;;14.56;56.10;98462.22;5029857;28;19975;-62
2022/04/25 07:03:58;;;;;;;;;;;;;;;14.45;56.13;98471.38;5027035;28;19933;-65
2022/04/25 07:06:24;;;;;;;;;;;;;;;14.61;56.63;98477.34;5028151;28;19931;-63
2022/04/25 07:08:49;;;;;;;;;;;;;;;14.98;56.28;98473.91;5029042;28;19971;-62
2022/04/25 07:11:15;;;;;;;;;;;;;;;15.11;56.19;98467.84;5030377;28;19925;-63
2022/04/25 07:13:42;;;;;;;;;;;;;;;15.14;55.49;98464.59;5030216;28;19936;-64
2022/04/25 07:16:08;;;;;;;;;;;;;;;15.38;55.09;98469.03;5028358;28;19979;-65
2022/04/25 07:18:34;;;;;;;;;;;;;;;15.58;53.95;98470.59;5030076;28;20361;-64
2022/04/25 07:20:59;;;;;;;;;;;;;;;15.60;54.63;98476.47;5028126;28;19933;-64
2022/04/25 07:28:58;;;;;;;;;;;;;;;15.43;53.70;98477.78;5029751;28;19924;-64
2022/04/25 07:31:24;;;;;;;;;;;;;;;15.34;53.38;98470.72;4995578;28;20016;-64
2022/04/25 07:33:49;;;;;;;;;;;;;;;15.26;54.49;98469.50;5020436;28;20066;-64
2022/04/25 07:36:17;;;;;;;;;;;;;;;15.26;53.96;98466.03;5030994;28;20390;-63
2022/04/25 07:38:43;;;;;;;;;;;;;;;15.02;54.12;98461.56;5032240;28;19933;-63
2022/04/25 07:41:08;;;;;;;;;;;;;;;14.82;54.04;98459.19;5029694;28;19925;-64
2022/04/25 07:43:34;;;;;;;;;;;;;;;14.68;54.22;98456.47;5031414;28;19936;-65
2022/04/25 07:46:00;;;;;;;;;;;;;;;14.58;54.37;98460.03;5030533;28;19928;-64
2022/04/25 07:48:25;;;;;;;;;;;;;;;14.60;54.57;98457.88;5029792;28;19984;-63
2022/04/25 07:50:51;;;;;;;;;;;;;;;14.52;55.26;98456.63;5030531;28;19925;-65
2022/04/25 07:53:16;;;;;;;;;;;;;;;14.39;55.38;98449.31;5031640;28;20404;-63
2022/04/25 07:55:42;;;;;;;;;;;;;;;14.34;55.46;98452.03;5031632;28;19925;-64
2022/04/25 07:58:08;;;;;;;;;;;;;;;14.29;55.01;98442.22;5028151;28;19940;-66
2022/04/25 08:00:38;;;;;;;;;;;;;;;14.29;54.99;98441.41;5022966;28;19971;-67
2022/04/25 08:03:04;;;;;;;;;;;;;;;14.34;54.93;98433.38;5030193;28;20370;-66
2022/04/25 08:05:30;;;;;;;;;;;;;;;14.40;54.20;98444.75;5013446;28;20296;-69
2022/04/25 08:07:56;;;;;;;;;;;;;;;14.47;54.86;98439.88;5010379;28;19930;-68
2022/04/25 08:10:22;;;;;;;;;;;;;;;14.58;54.78;98443.25;5016510;28;19932;-67
2022/04/25 08:18:16;;;;;;;;;;;;;;;14.72;53.80;98434.25;5031207;28;20410;-65
2022/04/25 08:20:42;;;;;;;;;;;;;;;14.74;53.79;98429.41;5030869;28;19952;-65
2022/04/25 08:23:12;;;;;;;;;;;;;;;14.91;53.45;98428.09;5029876;28;19986;-64
2022/04/25 08:25:39;;;;;;;;;;;;;;;14.91;53.34;98426.25;5029144;28;20031;-63
2022/04/25 08:28:07;;;;;;;;;;;;;;;14.96;54.09;98420.03;5030320;28;19929;-63
2022/04/25 08:30:33;;;;;;;;;;;;;;;15.08;53.70;98417.72;5030004;28;19925;-64
2022/04/25 08:33:00;;;;;;;;;;;;;;;15.21;52.42;98414.31;5029871;28;19935;-64
2022/04/25 08:35:26;;;;;;;;;;;;;;;15.23;51.33;98419.34;5031055;28;19924;-65
2022/04/25 08:37:51;;;;;;;;;;;;;;;15.28;51.71;98410.47;5031318;28;19936;-64
2022/04/25 08:40:17;;;;;;;;;;;;;;;15.40;51.13;98408.16;5033272;28;20356;-66
2022/04/25 08:42:43;;;;;;;;;;;;;;;15.39;51.56;98404.69;5034508;28;20328;-64
2022/04/25 08:45:09;;;;;;;;;;;;;;;15.49;52.15;98402.94;5032711;28;20348;-62
2022/04/25 08:47:55;;;;;;;;;;;;;;;15.58;51.85;98404.63;5033887;28;19945;-63
2022/04/25 08:50:21;;;;;;;;;;;;;;;15.75;50.98;98403.31;5033407;28;19925;-65
2022/04/25 08:52:47;;;;;;;;;;;;;;;15.82;51.07;98401.03;5032936;28;19933;-65
2022/04/25 08:55:13;;;;;;;;;;;;;;;15.99;50.84;98395.09;5033460;28;19925;-65
2022/04/25 08:57:39;;;;;;;;;;;;;;;15.99;50.62;98385.19;5033529;28;19928;-66
2022/04/25 09:00:05;;;;;;;;;;;;;;;15.90;50.07;98384.31;5016604;28;20032;-65
2022/04/25 09:02:31;;;;;;;;;;;;;;;15.94;50.05;98384.50;5034180;28;19979;-65
2022/04/25 09:04:56;;;;;;;;;;;;;;;16.01;49.85;98375.00;5033389;28;19965;-64
2022/04/25 09:07:22;;;;;;;;;;;;;;;15.96;49.31;98383.13;5034406;28;19936;-65
2022/04/25 09:09:48;;;;;;;;;;;;;;;15.86;49.00;98380.66;5034674;28;19929;-65
2022/04/25 09:12:14;;;;;;;;;;;;;;;15.89;49.33;98372.03;5032794;28;20428;-65
2022/04/25 09:14:40;;;;;;;;;;;;;;;16.10;49.58;98373.22;5034682;28;19974;-67
2022/04/25 09:17:06;;;;;;;;;;;;;;;16.33;48.76;98371.41;5034171;28;19971;-64
2022/04/25 09:19:32;;;;;;;;;;;;;;;16.57;48.14;98368.50;5032204;28;19924;-64
2022/04/25 09:21:58;;;;;;;;;;;;;;;16.68;48.29;98370.97;5025477;28;20354;-65
2022/04/25 09:24:26;;;;;;;;;;;;;;;16.77;47.85;98369.16;5029541;28;20426;-66
2022/04/25 09:26:52;;;;;;;;;;;;;;;16.88;46.85;98367.81;5023091;28;20394;-64
2022/04/25 09:29:37;;;;;;;;;;;;;;;16.86;46.94;98374.59;5013194;28;19929;-64
2022/04/25 09:32:03;;;;;;;;;;;;;;;16.91;46.27;98369.09;5013807;28;20421;-65
2022/04/25 09:37:13;;;;;;;;;;;;;;;16.95;45.44;98365.53;5013791;28;19956;-64
2022/04/25 09:39:39;;;;;;;;;;;;;;;17.01;45.08;98360.84;5027604;28;19948;-61
2022/04/25 09:42:04;;;;;;;;;;;;;;;17.09;45.33;98359.31;5034304;28;20298;-62
2022/04/25 09:44:53;;;;;;;;;;;;;;;17.17;45.16;98361.25;5032666;28;19932;-65
2022/04/25 09:47:29;;;;;;;;;;;;;;;17.36;45.28;98367.22;5032367;28;19982;-65
2022/04/25 09:50:05;;;;;;;;;;;;;;;17.38;44.93;98361.53;5033786;28;20027;-64
2022/04/25 09:52:32;;;;;;;;;;;;;;;17.50;44.85;98356.41;5032878;28;19929;-63
2022/04/25 09:55:14;;;;;;;;;;;;;;;17.74;43.67;98353.38;5033628;28;19932;-64
2022/04/25 09:57:40;;;;;;;;;;;;;;;17.83;42.76;98346.19;5033284;28;19929;-65
2022/04/25 10:00:06;;;;;;;;;;;;;;;17.86;42.50;98353.59;5033001;28;19925;-64
2022/04/25 10:02:39;;;;;;;;;;;;;;;17.88;42.08;98347.91;5033469;28;19933;-64
2022/04/25 10:05:14;;;;;;;;;;;;;;;17.83;41.75;98343.50;5033318;28;19951;-63
2022/04/25 10:07:42;;;;;;;;;;;;;;;17.76;42.29;98347.69;5020685;28;19929;-68
2022/04/25 10:10:10;;;;;;;;;;;;;;;17.80;42.50;98352.16;5032547;28;19971;-68
2022/04/25 10:12:37;;;;;;;;;;;;;;;17.79;43.06;98363.19;5031892;28;19929;-63
2022/04/25 10:15:03;;;;;;;;;;;;;;;18.04;42.86;98354.44;5033212;28;19986;-66
2022/04/25 10:17:31;;;;;;;;;;;;;;;18.21;41.94;98363.63;5033005;28;19968;-64
2022/04/25 10:19:56;;;;;;;;;;;;;;;18.26;41.84;98358.09;5015236;28;19932;-66
2022/04/25 10:22:22;;;;;;;;;;;;;;;18.10;41.94;98355.88;5031948;28;20287;-64
2022/04/25 10:24:47;;;;;;;;;;;;;;;18.15;41.99;98357.63;5031920;28;20066;-63
2022/04/25 10:27:14;;;;;;;;;;;;;;;18.15;41.61;98350.38;5032794;28;19936;-63
2022/04/25 10:29:43;;;;;;;;;;;;;;;18.23;41.70;98351.47;5033272;28;20286;-65
2022/04/25 10:32:11;;;;;;;;;;;;;;;18.42;41.64;98348.53;5032066;28;20023;-65
2022/04/25 10:35:01;;;;;;;;;;;;;;;18.46;40.84;98343.31;5033311;28;19925;-63
2022/04/25 10:37:33;;;;;;;;;;;;;;;18.33;41.50;98343.13;5032644;28;19929;-65
2022/04/25 10:39:59;;;;;;;;;;;;;;;18.58;41.54;98338.09;5032949;28;20020;-65
2022/04/25 10:45:09;;;;;;;;;;;;;;;18.54;40.59;98329.91;5030011;28;20381;-62
2022/04/25 10:47:34;;;;;;;;;;;;;;;18.69;40.15;98335.91;5031028;28;19929;-63
2022/04/25 10:50:02;;;;;;;;;;;;;;;18.90;39.79;98336.84;5029420;28;19932;-64
2022/04/25 10:52:41;;;;;;;;;;;;;;;19.05;40.08;98336.34;5013767;28;19929;-66
2022/04/25 10:55:19;;;;;;;;;;;;;;;19.03;39.37;98335.09;5030779;28;20039;-63
2022/04/25 10:58:07;;;;;;;;;;;;;;;18.91;39.48;98330.38;5013954;28;20063;-63
2022/04/25 11:00:44;;;;;;;;;;;;;;;18.56;40.21;98333.06;5031716;28;19971;-63
2022/04/25 11:03:10;;;;;;;;;;;;;;;18.19;40.98;98326.38;5031885;28;19949;-65
2022/04/25 11:05:37;;;;;;;;;;;;;;;17.95;41.53;98329.50;5032201;28;19971;-64
2022/04/25 11:08:18;;;;;;;;;;;;;;;17.74;41.80;98329.25;5030601;28;19979;-62
2022/04/25 11:10:47;;;;;;;;;;;;;;;17.63;41.95;98320.69;5031796;28;19925;-63
2022/04/25 11:13:13;;;;;;;;;;;;;;;17.53;41.77;98329.00;5032059;28;20382;-63
2022/04/25 11:15:42;;;;;;;;;;;;;;;17.34;42.20;98334.56;5006532;28;19960;-63
2022/04/25 11:18:38;;;;;;;;;;;;;;;17.25;42.26;98339.88;5030401;28;20376;-61
2022/04/25 11:21:08;;;;;;;;;;;;;;;17.37;42.31;98333.19;5013964;28;19925;-63
2022/04/25 11:23:45;;;;;;;;;;;;;;;17.46;42.17;98336.69;5011244;28;19991;-63
2022/04/25 11:26:36;;;;;;;;;;;;;;;17.58;41.71;98336.09;5031543;28;19932;-62
2022/04/25 11:29:03;;;;;;;;;;;;;;;17.65;42.00;98331.09;5029629;28;19937;-63
2022/04/25 11:31:29;;;;;;;;;;;;;;;17.57;41.10;98323.81;5031773;28;20023;-62
2022/04/25 11:34:02;;;;;;;;;;;;;;;17.51;41.34;98325.84;4998035;28;20023;-62
2022/04/25 11:36:29;;;;;;;;;;;;;;;17.39;41.28;98322.94;5031878;28;19929;-63
2022/04/25 11:41:39;;;;;;;;;;;;;;;17.56;41.30;98324.91;5030154;28;19935;-63
2022/04/25 11:44:05;;;;;;;;;;;;;;;17.66;41.13;98328.09;5022763;28;19930;-64
2022/04/25 11:46:31;;;;;;;;;;;;;;;17.54;41.01;98314.50;5011410;28;19948;-64
2022/04/25 11:48:56;;;;;;;;;;;;;;;17.46;41.45;98313.34;5016775;28;19937;-65
2022/04/25 11:51:29;;;;;;;;;;;;;;;17.38;41.18;98322.16;5013289;28;19931;-64
2022/04/25 11:53:57;;;;;;;;;;;;;;;17.48;41.55;98321.88;5009572;28;20398;-64
2022/04/25 11:56:22;;;;;;;;;;;;;;;17.57;41.01;98319.25;5020421;28;20022;-64
2022/04/25 11:58:48;;;;;;;;;;;;;;;17.68;40.57;98311.72;5028568;28;19988;-64
2022/04/25 12:01:35;;;;;;;;;;;;;;;17.81;40.67;98320.78;5031321;28;19925;-65
2022/04/25 12:04:23;;;;;;;;;;;;;;;17.91;40.12;98318.63;5028849;28;20287;-63
2022/04/25 12:06:49;;;;;;;;;;;;;;;17.88;39.88;98315.75;5029431;28;19929;-64
2022/04/25 12:17:36;;;;;;;;;;;;;;;17.77;39.61;98320.59;5029061;28;19933;-64
2022/04/25 12:20:02;;;;;;;;;;;;;;;17.72;39.77;98318.03;5030651;28;20335;-66
2022/04/25 12:22:29;;;;;;;;;;;;;;;17.84;39.80;98323.63;5027599;28;20349;-65
2022/04/25 12:25:14;;;;;;;;;;;;;;;17.84;39.75;98315.56;5030209;28;19971;-64
2022/04/25 12:27:41;;;;;;;;;;;;;;;17.85;39.64;98316.38;5030120;28;20324;-62
2022/04/25 12:30:07;;;;;;;;;;;;;;;17.80;39.92;98317.31;5022996;28;19932;-62
2022/04/25 12:32:32;;;;;;;;;;;;;;;17.52;40.76;98326.63;5010796;28;19940;-63
2022/04/25 12:34:58;;;;;;;;;;;;;;;17.25;40.90;98325.72;5024617;28;20348;-62
2022/04/25 12:37:23;;;;;;;;;;;;;;;17.22;41.41;98329.00;5030501;28;20342;-62
2022/04/25 12:39:59;;;;;;;;;;;;;;;17.35;41.20;98327.31;5029058;28;19940;-66
2022/04/25 12:42:44;;;;;;;;;;;;;;;17.37;41.26;98317.88;5026636;28;19929;-60
2022/04/25 12:45:10;;;;;;;;;;;;;;;17.37;40.58;98320.56;5014099;28;19995;-62
2022/04/25 12:47:35;;;;;;;;;;;;;;;17.37;40.79;98320.56;5028473;28;20390;-60
2022/04/25 12:50:03;;;;;;;;;;;;;;;17.29;41.18;98321.31;5030336;28;19925;-63
2022/04/25 12:52:41;;;;;;;;;;;;;;;17.31;41.27;98323.69;5028074;28;19940;-61
2022/04/25 12:55:07;;;;;;;;;;;;;;;17.17;41.51;98321.09;4980810;28;20287;-62
2022/04/25 12:57:32;;;;;;;;;;;;;;;17.10;41.57;98318.06;4993245;28;20346;-62
2022/04/25 12:59:59;;;;;;;;;;;;;;;16.97;43.99;98317.84;5010028;28;20422;-61
2022/04/25 13:02:32;;;;;;;;;;;;;;;17.00;42.86;98314.53;5028968;28;19932;-61
2022/04/25 13:04:58;;;;;;;;;;;;;;;16.94;42.59;98310.41;5029070;28;19956;-61
2022/04/25 13:07:31;;;;;;;;;;;;;;;16.92;42.59;98309.13;5027963;28;19933;-62
2022/04/25 13:09:57;;;;;;;;;;;;;;;16.95;42.75;98313.88;5028456;28;19925;-63
2022/04/25 13:12:24;;;;;;;;;;;;;;;16.80;42.05;98310.47;5029108;28;19952;-59
2022/04/25 13:14:50;;;;;;;;;;;;;;;16.76;42.75;98314.03;5017379;28;20022;-63
2022/04/25 13:17:15;;;;;;;;;;;;;;;16.70;43.36;98323.25;5020585;28;20028;-61
2022/04/25 13:19:42;;;;;;;;;;;;;;;16.63;44.80;98325.56;5025966;28;20056;-63
2022/04/25 13:22:08;;;;;;;;;;;;;;;16.63;48.26;98331.72;5025822;28;20341;-61
2022/04/25 13:24:33;;;;;;;;;;;;;;;16.59;48.14;98336.09;5025781;28;19932;-62
2022/04/25 13:26:59;;;;;;;;;;;;;;;16.48;47.17;98345.44;4999304;28;19925;-61
2022/04/25 13:29:25;;;;;;;;;;;;;;;16.33;46.88;98341.22;5014511;28;20400;-63